PATA/TAL METAR and TAF weather

Enter ICAO airport designator
Station Type Date Time Source
PATA METAR 2020/01/28 04:52 UTC NOAA

PATA 280452Z 00000KT 10SM CLR M40/ A2982 RMK AO2 SLP113 T1400


Station Type Date Time Source
PATA Decoded METAR 2020/01/28 04:52 UTC NOAA

TANANA CALHOUN MEMORIAL AIRPORT , AK, United States (PATA) 65-10N 152-06W 67M
Jan 27, 2020 - 11:52 PM EST / 2020.01.28 0452 UTC
Wind: Calm:0
Visibility: 10 mile(s):0
Sky conditions: clear
Temperature: -40 F (-40 C)
Pressure (altimeter): 29.82 in. Hg (1009 hPa)
ob: PATA 280452Z 00000KT 10SM CLR M40/ A2982 RMK AO2 SLP113 T1400
cycle: 5

Station Type Date Time Source
PATA TAF 2020/01/27 18:28 UTC NOAA

TAF PATA 271726Z 2718/2818 05006KT P6SM VCFG FEW002

Example: see airport list